createdAt,value
2023-02-09T00:00:01.866Z,-5.39
2023-02-09T00:00:59.195Z,-5.43
2023-02-09T00:01:59.179Z,-5.28
2023-02-09T00:02:59.088Z,-5.28
2023-02-09T00:03:59.125Z,-5.29
2023-02-09T00:04:59.104Z,-5.21
2023-02-09T00:05:59.061Z,-5.27
2023-02-09T00:07:00.725Z,-5.43
2023-02-09T00:08:00.078Z,-5.58
2023-02-09T00:08:59.071Z,-5.57
2023-02-09T00:09:59.037Z,-5.75
2023-02-09T00:10:59.038Z,-5.63
2023-02-09T00:11:59.029Z,-5.66
2023-02-09T00:12:59.027Z,-5.61
2023-02-09T00:13:58.991Z,-5.71
2023-02-09T00:14:59.001Z,-5.66
2023-02-09T00:15:59.045Z,-5.60
2023-02-09T00:16:59.000Z,-5.61
2023-02-09T00:17:58.964Z,-5.54
2023-02-09T00:18:59.004Z,-5.53
2023-02-09T00:19:59.465Z,-5.57
2023-02-09T00:21:30.858Z,-5.63
2023-02-09T00:21:59.493Z,-5.72
2023-02-09T00:22:59.927Z,-5.67
2023-02-09T00:23:58.948Z,-5.46
2023-02-09T00:24:58.918Z,-5.36
2023-02-09T00:25:58.897Z,-5.40
2023-02-09T00:26:58.913Z,-5.29
2023-02-09T00:27:59.028Z,-5.18
2023-02-09T00:28:58.907Z,-5.24
2023-02-09T00:29:58.891Z,-5.35
2023-02-09T00:30:58.898Z,-5.33
2023-02-09T00:31:58.917Z,-5.49
2023-02-09T00:32:58.852Z,-5.60
2023-02-09T00:33:59.027Z,-5.68
2023-02-09T00:34:58.892Z,-5.79
2023-02-09T00:35:58.828Z,-5.86
2023-02-09T00:36:58.811Z,-5.84
2023-02-09T00:37:59.491Z,-5.95
2023-02-09T00:38:58.823Z,-5.89
2023-02-09T00:39:58.835Z,-5.92
2023-02-09T00:40:58.832Z,-6.11
2023-02-09T00:41:58.789Z,-6.00
2023-02-09T00:42:59.466Z,-5.97
2023-02-09T00:43:58.779Z,-5.96
2023-02-09T00:44:58.773Z,-6.00
2023-02-09T00:45:58.885Z,-5.97
2023-02-09T00:46:59.497Z,-6.00
2023-02-09T00:47:58.817Z,-6.00
2023-02-09T00:48:58.754Z,-5.96
2023-02-09T00:49:58.748Z,-5.95
2023-02-09T00:50:58.772Z,-5.82
2023-02-09T00:51:58.764Z,-5.86
2023-02-09T00:52:58.737Z,-5.89
2023-02-09T00:53:58.718Z,-6.10
2023-02-09T00:54:58.752Z,-6.14
2023-02-09T00:55:58.736Z,-6.20
2023-02-09T00:56:58.716Z,-6.20
2023-02-09T00:57:58.717Z,-6.08
2023-02-09T00:58:58.690Z,-6.13
2023-02-09T00:59:59.491Z,-6.15
2023-02-09T01:00:58.690Z,-6.05
2023-02-09T01:01:58.671Z,-6.03
2023-02-09T01:02:58.669Z,-6.15
2023-02-09T01:03:58.634Z,-6.15
2023-02-09T01:04:58.759Z,-6.14
2023-02-09T01:05:59.472Z,-6.17
2023-02-09T01:06:58.666Z,-6.23
2023-02-09T01:07:58.625Z,-6.28
2023-02-09T01:08:59.462Z,-6.20
2023-02-09T01:09:58.629Z,-6.13
2023-02-09T01:10:58.580Z,-6.11
2023-02-09T01:11:58.575Z,-6.08
2023-02-09T01:12:58.578Z,-6.03
2023-02-09T01:13:58.631Z,-6.07
2023-02-09T01:14:58.572Z,-6.14
2023-02-09T01:15:58.569Z,-6.15
2023-02-09T01:16:58.602Z,-6.38
2023-02-09T01:17:58.577Z,-6.28
2023-02-09T01:18:58.545Z,-6.35
2023-02-09T01:19:58.553Z,-6.44
2023-02-09T01:20:58.509Z,-6.34
2023-02-09T01:21:58.487Z,-6.34
2023-02-09T01:22:58.517Z,-6.28
2023-02-09T01:23:58.532Z,-6.47
2023-02-09T01:24:58.500Z,-6.36
2023-02-09T01:25:58.469Z,-6.17
2023-02-09T01:26:58.493Z,-6.20
2023-02-09T01:27:58.498Z,-6.34
2023-02-09T01:28:58.477Z,-6.41
2023-02-09T01:29:58.442Z,-6.41
2023-02-09T01:30:58.554Z,-6.35
2023-02-09T01:31:58.573Z,-6.47
2023-02-09T01:32:58.433Z,-6.39
2023-02-09T01:33:58.411Z,-6.44
2023-02-09T01:34:58.429Z,-6.42
2023-02-09T01:35:58.404Z,-6.41
2023-02-09T01:36:58.382Z,-6.38
2023-02-09T01:37:58.373Z,-6.41
2023-02-09T01:38:58.415Z,-6.34
2023-02-09T01:39:58.404Z,-6.42
2023-02-09T01:40:58.374Z,-6.38
2023-02-09T01:41:58.374Z,-6.46
2023-02-09T01:42:58.381Z,-6.46
2023-02-09T01:43:58.349Z,-6.42
2023-02-09T01:44:58.353Z,-6.47
2023-02-09T01:45:58.360Z,-6.49
2023-02-09T01:46:58.391Z,-6.69
2023-02-09T01:47:58.338Z,-6.61
2023-02-09T01:48:58.324Z,-6.63
2023-02-09T01:49:58.345Z,-6.60
2023-02-09T01:50:58.312Z,-6.75
2023-02-09T01:51:58.298Z,-6.76
2023-02-09T01:52:58.275Z,-6.75
2023-02-09T01:53:58.262Z,-6.84
2023-02-09T01:54:58.981Z,-6.72
2023-02-09T01:55:58.270Z,-6.83
2023-02-09T01:56:58.270Z,-6.83
2023-02-09T01:57:58.275Z,-6.84
2023-02-09T01:58:58.263Z,-6.79
2023-02-09T01:59:58.225Z,-6.84
2023-02-09T02:01:00.026Z,-6.84
2023-02-09T02:01:59.203Z,-6.93
2023-02-09T02:02:58.208Z,-6.90
2023-02-09T02:03:58.218Z,-6.97
2023-02-09T02:04:58.195Z,-6.93
2023-02-09T02:05:58.164Z,-6.92
2023-02-09T02:06:58.219Z,-6.97
2023-02-09T02:07:58.190Z,-7.07
2023-02-09T02:08:58.170Z,-7.14
2023-02-09T02:09:58.164Z,-7.11
2023-02-09T02:10:59.232Z,-7.07
2023-02-09T02:11:58.127Z,-7.05
2023-02-09T02:12:58.855Z,-7.10
2023-02-09T02:13:58.143Z,-6.97
2023-02-09T02:14:58.105Z,-6.84
2023-02-09T02:15:58.141Z,-6.89
2023-02-09T02:16:58.103Z,-6.87
2023-02-09T02:17:58.131Z,-6.78
2023-02-09T02:18:58.089Z,-6.86
2023-02-09T02:19:58.082Z,-6.92
2023-02-09T02:20:58.064Z,-6.96
2023-02-09T02:21:58.061Z,-6.92
2023-02-09T02:22:58.039Z,-6.92
2023-02-09T02:23:58.051Z,-6.79
2023-02-09T02:24:58.057Z,-6.92
2023-02-09T02:25:58.035Z,-6.81
2023-02-09T02:26:58.016Z,-6.79
2023-02-09T02:27:58.061Z,-6.96
2023-02-09T02:28:58.029Z,-6.89
2023-02-09T02:29:57.998Z,-6.90
2023-02-09T02:30:58.028Z,-6.93
2023-02-09T02:31:58.117Z,-6.86
2023-02-09T02:32:57.987Z,-6.92
2023-02-09T02:33:57.979Z,-6.99
2023-02-09T02:34:57.974Z,-6.93
2023-02-09T02:35:57.963Z,-7.03
2023-02-09T02:36:57.933Z,-6.97
2023-02-09T02:37:58.949Z,-6.99
2023-02-09T02:38:57.932Z,-6.99
2023-02-09T02:39:57.966Z,-6.96
2023-02-09T02:40:57.915Z,-7.03
2023-02-09T02:41:57.899Z,-7.07
2023-02-09T02:42:57.917Z,-7.00
2023-02-09T02:43:57.882Z,-6.96
2023-02-09T02:44:57.924Z,-7.11
2023-02-09T02:45:57.895Z,-7.11
2023-02-09T02:46:57.881Z,-7.13
2023-02-09T02:47:57.856Z,-7.14
2023-02-09T02:48:57.844Z,-7.17
2023-02-09T02:49:57.877Z,-7.11
2023-02-09T02:50:57.890Z,-7.10
2023-02-09T02:51:57.845Z,-7.08
2023-02-09T02:52:57.871Z,-7.05
2023-02-09T02:53:58.451Z,-7.08
2023-02-09T02:54:57.844Z,-7.21
2023-02-09T02:55:57.830Z,-7.18
2023-02-09T02:56:57.836Z,-7.17
2023-02-09T02:57:57.803Z,-7.08
2023-02-09T02:58:57.799Z,-7.13
2023-02-09T02:59:57.815Z,-7.10
2023-02-09T03:00:57.771Z,-6.99
2023-02-09T03:01:57.852Z,-7.08
2023-02-09T03:02:57.784Z,-7.03
2023-02-09T03:03:57.744Z,-7.03
2023-02-09T03:04:57.767Z,-7.11
2023-02-09T03:05:57.741Z,-7.13
2023-02-09T03:06:57.766Z,-7.11
2023-02-09T03:07:57.720Z,-7.15
2023-02-09T03:08:57.718Z,-7.10
2023-02-09T03:09:57.711Z,-7.14
2023-02-09T03:10:57.697Z,-7.17
2023-02-09T03:11:57.725Z,-7.26
2023-02-09T03:12:57.701Z,-7.23
2023-02-09T03:13:57.697Z,-7.26
2023-02-09T03:19:33.087Z,-7.26
2023-02-09T03:20:33.084Z,-7.29
2023-02-09T03:21:33.075Z,-7.36
2023-02-09T03:22:34.183Z,-7.26
2023-02-09T03:23:34.188Z,-7.38
2023-02-09T03:24:34.176Z,-7.31
2023-02-09T03:25:34.173Z,-7.29
2023-02-09T03:26:34.173Z,-7.35
2023-02-09T03:27:34.160Z,-7.33
2023-02-09T03:28:34.181Z,-7.29
2023-02-09T03:29:34.166Z,-7.29
2023-02-09T03:30:34.217Z,-7.43
2023-02-09T03:31:34.171Z,-7.44
2023-02-09T03:32:34.145Z,-7.46
2023-02-09T03:33:34.113Z,-7.33
2023-02-09T03:34:34.120Z,-7.36
2023-02-09T03:35:34.104Z,-7.40
2023-02-09T03:36:34.092Z,-7.38
2023-02-09T03:37:34.120Z,-7.42
2023-02-09T03:38:34.064Z,-7.52
2023-02-09T03:39:34.058Z,-7.40
2023-02-09T03:40:34.068Z,-7.35
2023-02-09T03:41:34.066Z,-7.36
2023-02-09T03:42:34.077Z,-7.36
2023-02-09T03:43:34.061Z,-7.33
2023-02-09T03:44:34.030Z,-7.33
2023-02-09T03:45:34.055Z,-7.36
2023-02-09T03:46:34.033Z,-7.36
2023-02-09T03:47:34.041Z,-7.35
2023-02-09T04:03:13.409Z,-7.32
2023-02-09T04:04:13.371Z,-7.38
2023-02-09T04:05:13.396Z,-7.49
2023-02-09T04:06:13.362Z,-7.53
2023-02-09T04:07:13.368Z,-7.49
2023-02-09T04:08:13.352Z,-7.42
2023-02-09T04:09:13.372Z,-7.29
2023-02-09T04:10:13.395Z,-7.28
2023-02-09T04:11:13.340Z,-7.33
2023-02-09T04:12:13.327Z,-7.21
2023-02-09T04:13:13.319Z,-7.13
2023-02-09T04:14:13.301Z,-7.25
2023-02-09T04:15:13.312Z,-7.31
2023-02-09T04:16:13.383Z,-7.29
2023-02-09T04:17:13.311Z,-7.26
2023-02-09T04:18:13.272Z,-7.28
2023-02-09T04:19:13.289Z,-7.31
2023-02-09T04:20:13.259Z,-7.33
2023-02-09T04:21:14.405Z,-7.29
2023-02-09T04:22:14.399Z,-7.40
2023-02-09T04:23:14.386Z,-7.38
2023-02-09T04:24:14.387Z,-7.47
2023-02-09T04:25:14.361Z,-7.29
2023-02-09T04:26:14.354Z,-7.29
2023-02-09T04:27:14.377Z,-7.29
2023-02-09T04:28:15.208Z,-7.28
2023-02-09T04:29:14.353Z,-7.15
2023-02-09T04:30:14.340Z,-6.90
2023-02-09T04:31:15.186Z,-6.81
2023-02-09T04:32:14.319Z,-6.75
2023-02-09T04:33:14.336Z,-6.76
2023-02-09T04:34:14.296Z,-6.92
2023-02-09T04:35:14.282Z,-7.03
2023-02-09T04:36:14.293Z,-7.10
2023-02-09T04:37:14.275Z,-7.05
2023-02-09T04:38:14.317Z,-7.04
2023-02-09T04:39:14.273Z,-7.15
2023-02-09T04:40:14.253Z,-7.15
2023-02-09T04:41:14.248Z,-7.18
2023-02-09T04:42:14.246Z,-7.32
2023-02-09T04:43:14.270Z,-7.46
2023-02-09T04:44:14.223Z,-7.49
2023-02-09T04:45:15.111Z,-7.56
2023-02-09T04:46:14.329Z,-7.46
2023-02-09T04:47:14.210Z,-7.44
2023-02-09T04:48:14.206Z,-7.42
2023-02-09T04:49:14.212Z,-7.50
2023-02-09T04:50:14.392Z,-7.47
2023-02-09T04:51:14.185Z,-7.53
2023-02-09T04:52:14.172Z,-7.50
2023-02-09T04:53:14.167Z,-7.58
2023-02-09T04:54:14.147Z,-7.52
2023-02-09T04:55:14.179Z,-7.53
2023-02-09T04:56:15.095Z,-7.49
2023-02-09T04:57:15.146Z,-7.46
2023-02-09T04:58:16.239Z,-7.42
2023-02-09T04:59:14.131Z,-7.44
2023-02-09T05:00:14.151Z,-7.22
2023-02-09T05:01:14.219Z,-7.26
2023-02-09T05:02:14.096Z,-7.25
2023-02-09T05:03:14.155Z,-7.15
2023-02-09T05:04:14.093Z,-7.14
2023-02-09T05:05:14.166Z,-7.26
2023-02-09T05:06:14.065Z,-7.26
2023-02-09T05:07:14.095Z,-7.28
2023-02-09T05:08:14.055Z,-7.22
2023-02-09T05:09:15.062Z,-7.17
2023-02-09T05:10:14.065Z,-7.13
2023-02-09T05:11:14.026Z,-7.18
2023-02-09T05:12:14.041Z,-7.28
2023-02-09T05:13:14.013Z,-7.25
2023-02-09T05:14:14.625Z,-7.26
2023-02-09T05:15:14.016Z,-7.32
2023-02-09T05:16:14.006Z,-7.36
2023-02-09T05:17:14.072Z,-7.28
2023-02-09T05:18:14.014Z,-7.49
2023-02-09T05:19:13.969Z,-7.60
2023-02-09T05:20:13.977Z,-7.50
2023-02-09T05:21:13.985Z,-7.56
2023-02-09T05:22:13.958Z,-7.47
2023-02-09T05:23:13.954Z,-7.40
2023-02-09T05:24:13.963Z,-7.21
2023-02-09T05:25:14.924Z,-7.03
2023-02-09T05:26:14.030Z,-7.00
2023-02-09T05:27:13.927Z,-7.22
2023-02-09T05:28:13.958Z,-7.15
2023-02-09T05:29:13.933Z,-7.17
2023-02-09T05:30:13.926Z,-7.14
2023-02-09T05:31:13.934Z,-7.18
2023-02-09T05:32:13.935Z,-7.25
2023-02-09T05:33:13.889Z,-7.33
2023-02-09T05:34:13.903Z,-7.28
2023-02-09T05:35:13.909Z,-7.23
2023-02-09T05:36:13.861Z,-7.28
2023-02-09T05:37:13.842Z,-7.23
2023-02-09T05:38:13.843Z,-7.23
2023-02-09T05:39:13.882Z,-7.23
2023-02-09T05:40:14.008Z,-7.18
2023-02-09T05:41:14.832Z,-7.23
2023-02-09T05:42:13.812Z,-7.25
2023-02-09T05:43:13.847Z,-7.28
2023-02-09T05:44:13.825Z,-7.32
2023-02-09T05:45:13.824Z,-7.44
2023-02-09T05:46:13.924Z,-7.36
2023-02-09T05:47:13.798Z,-7.44
2023-02-09T05:48:13.792Z,-7.40
2023-02-09T05:49:13.787Z,-7.35
2023-02-09T05:50:13.781Z,-7.32
2023-02-09T05:51:13.771Z,-7.29
2023-02-09T05:52:13.747Z,-7.31
2023-02-09T05:53:15.180Z,-7.38
2023-02-09T05:54:14.733Z,-7.33
2023-02-09T05:55:13.767Z,-7.43
2023-02-09T05:56:13.884Z,-7.36
2023-02-09T05:57:13.731Z,-7.42
2023-02-09T05:58:13.692Z,-7.53
2023-02-09T05:59:13.687Z,-7.52
2023-02-09T06:00:13.708Z,-7.63
2023-02-09T06:01:14.610Z,-7.61
2023-02-09T06:02:13.792Z,-7.54
2023-02-09T06:03:13.784Z,-7.72
2023-02-09T06:04:14.647Z,-7.72
2023-02-09T06:05:13.660Z,-7.70
2023-02-09T06:06:13.660Z,-7.70
2023-02-09T06:07:13.664Z,-7.64
2023-02-09T06:08:13.656Z,-7.64
2023-02-09T06:09:13.723Z,-7.68
2023-02-09T06:10:13.598Z,-7.67
2023-02-09T06:11:13.589Z,-7.70
2023-02-09T06:12:14.397Z,-7.63
2023-02-09T06:13:13.588Z,-7.65
2023-02-09T06:14:13.588Z,-7.63
2023-02-09T06:15:13.588Z,-7.75
2023-02-09T06:16:13.556Z,-7.79
2023-02-09T06:17:13.583Z,-7.85
2023-02-09T06:18:13.641Z,-7.81
2023-02-09T06:19:13.569Z,-7.85
2023-02-09T06:20:13.571Z,-7.83
2023-02-09T06:21:45.424Z,-7.91
2023-02-09T06:22:13.677Z,-7.89
2023-02-09T06:23:13.501Z,-7.81
2023-02-09T06:24:13.495Z,-7.81
2023-02-09T06:25:13.537Z,-7.91
2023-02-09T06:26:13.502Z,-7.97
2023-02-09T06:27:13.505Z,-7.89
2023-02-09T06:28:13.505Z,-7.81
2023-02-09T06:29:13.452Z,-7.72
2023-02-09T06:30:14.460Z,-7.75
2023-02-09T06:31:13.597Z,-7.78
2023-02-09T06:32:13.550Z,-7.72
2023-02-09T06:33:13.427Z,-7.71
2023-02-09T06:34:13.445Z,-7.71
2023-02-09T06:35:13.421Z,-7.68
2023-02-09T06:36:13.428Z,-7.71
2023-02-09T06:37:13.420Z,-7.54
2023-02-09T06:38:13.405Z,-7.54
2023-02-09T06:39:14.118Z,-7.52
2023-02-09T06:40:13.397Z,-7.43
2023-02-09T06:41:13.441Z,-7.46
2023-02-09T06:42:13.386Z,-7.49
2023-02-09T06:43:13.381Z,-7.54
2023-02-09T06:44:13.377Z,-7.54
2023-02-09T06:45:13.396Z,-7.58
2023-02-09T06:46:13.449Z,-7.54
2023-02-09T06:47:13.355Z,-7.63
2023-02-09T06:48:13.366Z,-7.47
2023-02-09T06:49:13.392Z,-7.49
2023-02-09T06:50:13.363Z,-7.56
2023-02-09T06:51:13.307Z,-7.54
2023-02-09T06:52:13.322Z,-7.68
2023-02-09T06:53:13.300Z,-7.60
2023-02-09T06:54:13.300Z,-7.56
2023-02-09T06:55:13.338Z,-7.50
2023-02-09T06:56:13.305Z,-7.65
2023-02-09T06:57:13.294Z,-7.78
2023-02-09T06:58:13.265Z,-7.67
2023-02-09T06:59:13.269Z,-7.74
2023-02-09T07:00:13.304Z,-7.70
2023-02-09T07:01:13.268Z,-7.79
2023-02-09T07:02:13.268Z,-7.81
2023-02-09T07:03:13.263Z,-7.89
2023-02-09T07:04:13.262Z,-7.92
2023-02-09T07:05:13.254Z,-7.91
2023-02-09T07:06:13.213Z,-7.85
2023-02-09T07:07:13.288Z,-7.74
2023-02-09T07:08:13.202Z,-7.74
2023-02-09T07:09:13.183Z,-7.86
2023-02-09T07:10:13.213Z,-7.83
2023-02-09T07:11:13.184Z,-7.82
2023-02-09T07:12:13.156Z,-7.83
2023-02-09T07:13:13.148Z,-7.70
2023-02-09T07:14:13.133Z,-7.65
2023-02-09T07:15:13.170Z,-7.54
2023-02-09T07:16:13.200Z,-7.40
2023-02-09T07:17:13.126Z,-7.36
2023-02-09T07:18:13.223Z,-7.33
2023-02-09T07:19:13.187Z,-7.35
2023-02-09T07:20:13.117Z,-7.35
2023-02-09T07:21:14.165Z,-7.38
2023-02-09T07:22:13.088Z,-7.35
2023-02-09T07:23:13.128Z,-7.29
2023-02-09T07:24:13.098Z,-6.93
2023-02-09T07:25:13.102Z,-6.39
2023-02-09T07:26:13.083Z,-5.79
2023-02-09T07:27:13.063Z,-5.02
2023-02-09T07:28:13.084Z,-4.39
2023-02-09T07:29:13.083Z,-3.69
2023-02-09T07:30:14.066Z,-2.88
2023-02-09T07:31:13.246Z,-2.26
2023-02-09T07:32:13.017Z,-1.95
2023-02-09T07:33:13.057Z,-1.51
2023-02-09T07:34:13.074Z,-1.26
2023-02-09T07:35:13.010Z,-1.32
2023-02-09T07:36:13.019Z,-1.04
2023-02-09T07:37:13.020Z,-0.64
2023-02-09T07:38:12.990Z,-0.10
2023-02-09T07:39:12.978Z,0.10
2023-02-09T07:40:12.972Z,0.58
2023-02-09T07:41:13.017Z,0.86
2023-02-09T07:42:12.940Z,0.87
2023-02-09T07:43:12.946Z,0.65
2023-02-09T07:44:12.931Z,1.26
2023-02-09T07:45:12.910Z,2.07
2023-02-09T07:46:12.959Z,2.46
2023-02-09T07:47:12.923Z,2.87
2023-02-09T07:48:12.903Z,3.00
2023-02-09T07:49:14.157Z,2.95
2023-02-09T07:50:12.896Z,2.93
2023-02-09T07:51:12.880Z,3.08
2023-02-09T07:52:14.145Z,2.57
2023-02-09T07:53:12.901Z,2.31
2023-02-09T07:54:12.860Z,2.24
2023-02-09T07:55:12.841Z,1.66
2023-02-09T07:56:12.845Z,1.45
2023-02-09T07:57:12.859Z,0.91
2023-02-09T07:58:12.818Z,1.13
2023-02-09T07:59:12.826Z,1.94
2023-02-09T08:00:12.815Z,2.42
2023-02-09T08:01:12.824Z,2.93
2023-02-09T08:02:12.811Z,3.47
2023-02-09T08:03:12.769Z,3.76
2023-02-09T08:04:12.779Z,3.42
2023-02-09T08:05:12.874Z,3.22
2023-02-09T08:06:12.742Z,3.08
2023-02-09T08:07:12.754Z,3.05
2023-02-09T08:08:12.737Z,2.77
2023-02-09T08:09:12.752Z,2.38
2023-02-09T08:10:12.716Z,2.29
2023-02-09T08:11:12.742Z,2.47
2023-02-09T08:12:12.799Z,2.86
2023-02-09T08:13:12.734Z,3.11
2023-02-09T08:14:12.698Z,3.25
2023-02-09T08:15:12.683Z,2.83
2023-02-09T08:16:59.225Z,3.23
2023-02-09T08:17:59.244Z,3.34
2023-02-09T08:18:59.229Z,3.68
2023-02-09T08:20:00.374Z,3.99
2023-02-09T08:21:00.340Z,4.35
2023-02-09T08:22:00.345Z,4.63
2023-02-09T08:23:00.316Z,4.90
2023-02-09T08:24:00.324Z,4.92
2023-02-09T08:25:00.328Z,5.05
2023-02-09T08:26:00.323Z,5.23
2023-02-09T08:27:00.294Z,5.65
2023-02-09T08:28:00.351Z,5.86
2023-02-09T08:29:00.343Z,5.75
2023-02-09T08:30:00.326Z,5.83
2023-02-09T08:31:00.292Z,6.17
2023-02-09T08:32:00.323Z,6.42
2023-02-09T08:33:00.250Z,5.61
2023-02-09T08:34:00.251Z,4.53
2023-02-09T08:35:00.227Z,4.93
2023-02-09T08:36:00.241Z,5.61
2023-02-09T08:37:00.271Z,6.09
2023-02-09T08:38:00.216Z,6.56
2023-02-09T08:39:00.207Z,6.87
2023-02-09T08:40:00.200Z,7.06
2023-02-09T08:41:00.214Z,7.40
2023-02-09T08:42:00.188Z,7.47
2023-02-09T08:43:00.172Z,7.69
2023-02-09T08:44:00.189Z,7.56
2023-02-09T08:45:00.182Z,7.43
2023-02-09T08:46:00.337Z,7.40
2023-02-09T08:47:00.345Z,7.58
2023-02-09T08:48:00.124Z,7.91
2023-02-09T08:49:00.115Z,7.88
2023-02-09T08:50:00.111Z,7.98
2023-02-09T08:51:01.143Z,8.23
2023-02-09T08:52:00.116Z,8.27
2023-02-09T08:53:00.195Z,8.23
2023-02-09T08:54:00.107Z,7.91
2023-02-09T08:55:00.085Z,7.72
2023-02-09T08:56:00.093Z,8.09
2023-02-09T08:57:00.088Z,8.05
2023-02-09T08:58:00.107Z,8.00
2023-02-09T08:59:00.046Z,8.13
2023-02-09T09:00:00.062Z,8.44
2023-02-09T09:01:00.223Z,8.87
2023-02-09T09:02:00.069Z,8.76
2023-02-09T09:03:00.095Z,8.52
2023-02-09T09:04:00.126Z,8.28
2023-02-09T09:04:59.991Z,7.85
2023-02-09T09:06:00.005Z,8.26
2023-02-09T09:07:00.060Z,8.49
2023-02-09T09:07:59.990Z,8.45
2023-02-09T09:08:59.971Z,8.28
2023-02-09T09:09:59.976Z,7.79
2023-02-09T09:10:59.939Z,6.62
2023-02-09T09:11:59.959Z,7.20
2023-02-09T09:12:59.935Z,7.11
2023-02-09T09:13:59.945Z,7.07
2023-02-09T09:14:59.966Z,7.14
2023-02-09T09:15:59.942Z,6.54
2023-02-09T09:16:59.961Z,7.07
2023-02-09T09:17:59.906Z,7.42
2023-02-09T09:18:59.938Z,7.85
2023-02-09T09:19:59.877Z,8.12
2023-02-09T09:20:59.905Z,8.38
2023-02-09T09:21:59.903Z,8.05
2023-02-09T09:22:59.864Z,6.88
2023-02-09T09:23:59.880Z,5.84
2023-02-09T09:24:59.872Z,5.05
2023-02-09T09:25:59.859Z,4.58
2023-02-09T09:26:59.847Z,4.14
2023-02-09T09:27:59.849Z,3.60
2023-02-09T09:28:59.808Z,4.42
2023-02-09T09:29:59.838Z,4.06
2023-02-09T09:30:59.942Z,4.53
2023-02-09T09:31:59.806Z,5.48
2023-02-09T09:32:59.868Z,5.99
2023-02-09T09:33:59.780Z,6.46
2023-02-09T09:34:59.800Z,6.63
2023-02-09T09:35:59.749Z,6.75
2023-02-09T09:36:59.744Z,6.88
2023-02-09T09:37:59.765Z,7.33
2023-02-09T09:38:59.764Z,7.47
2023-02-09T09:39:59.750Z,7.43
2023-02-09T09:40:59.726Z,7.67
2023-02-09T09:41:59.703Z,8.05
2023-02-09T09:42:59.719Z,7.82
2023-02-09T09:43:59.768Z,7.83
2023-02-09T09:44:59.700Z,8.24
2023-02-09T09:45:59.732Z,8.44
2023-02-09T09:46:59.663Z,8.24
2023-02-09T09:47:59.696Z,8.12
2023-02-09T09:48:59.671Z,7.60
2023-02-09T09:49:59.659Z,7.69
2023-02-09T09:50:59.669Z,7.85
2023-02-09T09:51:59.661Z,8.37
2023-02-09T09:52:59.617Z,8.60
2023-02-09T09:53:59.606Z,8.09
2023-02-09T09:54:59.612Z,8.06
2023-02-09T09:55:59.654Z,8.05
2023-02-09T09:56:59.639Z,8.28
2023-02-09T09:57:59.577Z,8.26
2023-02-09T09:58:59.588Z,7.93
2023-02-09T09:59:59.600Z,7.70
2023-02-09T10:00:59.612Z,7.51
2023-02-09T10:01:59.599Z,7.50
2023-02-09T10:02:59.596Z,7.21
2023-02-09T10:03:59.534Z,7.03
2023-02-09T10:04:59.601Z,6.99
2023-02-09T10:05:59.520Z,7.02
2023-02-09T10:06:59.521Z,6.85
2023-02-09T10:07:59.610Z,6.45
2023-02-09T10:08:59.502Z,6.20
2023-02-09T10:09:59.551Z,6.09
2023-02-09T10:10:59.569Z,6.19
2023-02-09T10:11:59.481Z,6.04
2023-02-09T10:12:59.510Z,6.05
2023-02-09T10:13:59.507Z,5.41
2023-02-09T10:14:59.478Z,5.51
2023-02-09T10:15:59.475Z,5.91
2023-02-09T10:16:59.564Z,6.36
2023-02-09T10:17:59.460Z,6.07
2023-02-09T10:18:59.474Z,5.75
2023-02-09T10:19:59.457Z,5.39
2023-02-09T10:20:59.444Z,5.10
2023-02-09T10:21:59.430Z,5.36
2023-02-09T10:22:59.403Z,5.17
2023-02-09T10:23:59.455Z,5.00
2023-02-09T10:24:59.400Z,5.33
2023-02-09T10:25:59.381Z,5.48
2023-02-09T10:26:59.413Z,5.25
2023-02-09T10:27:59.410Z,5.26
2023-02-09T10:28:59.378Z,5.46
2023-02-09T10:29:59.376Z,5.39
2023-02-09T10:30:59.391Z,5.65
2023-02-09T10:31:59.388Z,5.71
2023-02-09T10:32:59.339Z,6.12
2023-02-09T10:33:59.398Z,6.19
2023-02-09T10:34:59.335Z,6.30
2023-02-09T10:35:59.294Z,6.57
2023-02-09T10:36:59.336Z,7.03
2023-02-09T10:37:59.290Z,6.92
2023-02-09T10:38:59.310Z,6.24
2023-02-09T10:39:59.289Z,6.04
2023-02-09T10:40:59.291Z,5.79
2023-02-09T10:41:59.315Z,5.57
2023-02-09T10:42:59.246Z,5.59
2023-02-09T10:43:59.257Z,5.66
2023-02-09T10:44:59.318Z,5.71
2023-02-09T10:45:59.241Z,5.41
2023-02-09T10:46:59.232Z,5.26
2023-02-09T10:47:59.221Z,5.05
2023-02-09T10:48:59.191Z,4.86
2023-02-09T10:49:59.212Z,5.00
2023-02-09T10:50:59.187Z,4.97
2023-02-09T10:51:59.196Z,5.12
2023-02-09T10:52:59.166Z,5.14
2023-02-09T10:53:59.187Z,4.97
2023-02-09T10:54:59.146Z,4.71
2023-02-09T10:55:59.154Z,5.07
2023-02-09T10:57:00.889Z,4.77
2023-02-09T10:57:59.170Z,4.92
2023-02-09T10:58:59.114Z,5.11
2023-02-09T10:59:59.120Z,4.97
2023-02-09T11:00:59.092Z,5.07
2023-02-09T11:01:59.173Z,5.39
2023-02-09T11:02:59.087Z,5.80
2023-02-09T11:03:59.142Z,5.97
2023-02-09T11:04:59.081Z,6.08
2023-02-09T11:05:59.076Z,5.57
2023-02-09T11:06:59.085Z,5.28
2023-02-09T11:07:59.069Z,4.75
2023-02-09T11:08:59.053Z,4.73
2023-02-09T11:09:59.032Z,4.62
2023-02-09T11:10:59.022Z,4.84
2023-02-09T11:11:59.946Z,4.75
2023-02-09T11:12:59.016Z,4.80
2023-02-09T11:13:59.026Z,4.71
2023-02-09T11:14:59.008Z,4.70
2023-02-09T11:15:59.072Z,4.59
2023-02-09T11:16:58.990Z,4.52
2023-02-09T11:17:59.001Z,4.53
2023-02-09T11:18:59.022Z,4.77
2023-02-09T11:19:58.986Z,4.48
2023-02-09T11:20:58.959Z,4.49
2023-02-09T11:21:58.943Z,4.55
2023-02-09T11:22:58.920Z,4.58
2023-02-09T11:23:58.968Z,4.63
2023-02-09T11:24:58.914Z,4.58
2023-02-09T11:25:58.929Z,4.52
2023-02-09T11:26:58.901Z,4.53
2023-02-09T11:27:58.935Z,4.16
2023-02-09T11:28:58.909Z,4.16
2023-02-09T11:29:58.908Z,4.17
2023-02-09T11:30:59.081Z,4.53
2023-02-09T11:31:58.954Z,4.75
2023-02-09T11:32:58.842Z,5.07
2023-02-09T11:33:58.871Z,5.23
2023-02-09T11:34:58.859Z,5.30
2023-02-09T11:35:58.825Z,5.29
2023-02-09T11:36:58.822Z,5.05
2023-02-09T11:37:58.826Z,5.18
2023-02-09T11:38:58.851Z,4.96
2023-02-09T11:39:58.804Z,4.93
2023-02-09T11:40:58.835Z,4.74
2023-02-09T11:41:58.772Z,4.67
2023-02-09T11:42:58.762Z,4.68
2023-02-09T11:43:58.766Z,4.70
2023-02-09T11:44:58.743Z,4.82
2023-02-09T11:45:58.773Z,4.73
2023-02-09T11:46:58.739Z,4.93
2023-02-09T11:47:58.734Z,4.96
2023-02-09T11:48:58.723Z,4.84
2023-02-09T11:49:58.706Z,5.02
2023-02-09T11:50:58.731Z,5.23
2023-02-09T11:51:58.706Z,5.41
2023-02-09T11:52:58.704Z,5.18
2023-02-09T11:53:58.683Z,5.05
2023-02-09T11:54:58.754Z,4.80
2023-02-09T11:55:59.433Z,4.66
2023-02-09T11:56:58.671Z,4.59
2023-02-09T11:57:58.636Z,4.78
2023-02-09T11:58:59.655Z,4.94
2023-02-09T11:59:58.700Z,5.04
2023-02-09T12:01:13.320Z,4.92
2023-02-09T12:02:00.629Z,4.80
2023-02-09T12:02:58.688Z,4.75
2023-02-09T12:03:58.614Z,4.78
2023-02-09T12:04:58.594Z,4.87
2023-02-09T12:05:58.599Z,5.12
2023-02-09T12:06:58.603Z,5.11
2023-02-09T12:07:58.609Z,4.84
2023-02-09T12:08:59.623Z,4.96
2023-02-09T12:09:58.558Z,4.82
2023-02-09T12:10:58.574Z,5.05
2023-02-09T12:11:58.563Z,5.21
2023-02-09T12:12:58.533Z,5.15
2023-02-09T12:13:58.550Z,5.00
2023-02-09T12:14:58.569Z,4.92
2023-02-09T12:15:59.548Z,4.99
2023-02-09T12:16:58.506Z,4.74
2023-02-09T12:17:58.511Z,4.58
2023-02-09T12:18:58.529Z,4.49
2023-02-09T12:19:59.548Z,4.53
2023-02-09T12:21:30.374Z,4.80
2023-02-09T12:21:58.480Z,4.89
2023-02-09T12:22:58.482Z,4.80
2023-02-09T12:23:58.490Z,4.75
2023-02-09T12:24:58.485Z,5.14
2023-02-09T12:25:58.464Z,5.15
2023-02-09T12:26:58.484Z,5.48
2023-02-09T12:27:58.993Z,5.38
2023-02-09T12:28:59.420Z,5.17
2023-02-09T12:29:58.428Z,5.28
2023-02-09T12:30:58.511Z,5.25
2023-02-09T12:31:58.445Z,5.21
2023-02-09T12:32:58.363Z,5.38
2023-02-09T12:33:58.411Z,5.25
2023-02-09T12:34:58.354Z,5.11
2023-02-09T12:35:58.381Z,5.21
2023-02-09T12:36:58.368Z,5.25
2023-02-09T12:37:58.375Z,5.30
2023-02-09T12:39:04.612Z,5.20
2023-02-09T12:40:00.313Z,5.21
2023-02-09T12:40:59.333Z,5.12
2023-02-09T12:41:58.356Z,4.99
2023-02-09T12:42:58.292Z,5.14
2023-02-09T12:43:58.303Z,5.18
2023-02-09T12:44:58.293Z,5.28
2023-02-09T12:45:58.325Z,5.33
2023-02-09T12:46:58.295Z,5.30
2023-02-09T12:47:58.286Z,5.15
2023-02-09T12:48:58.300Z,4.99
2023-02-09T12:49:59.038Z,5.04
2023-02-09T12:50:58.255Z,5.10
2023-02-09T12:51:58.295Z,5.00
2023-02-09T12:52:58.222Z,4.80
2023-02-09T12:53:58.206Z,4.94
2023-02-09T12:54:58.268Z,4.87
2023-02-09T12:55:58.198Z,4.71
2023-02-09T12:56:58.221Z,5.12
2023-02-09T12:57:58.232Z,5.10
2023-02-09T12:58:58.199Z,5.21
2023-02-09T12:59:58.221Z,5.32
2023-02-09T13:00:58.205Z,5.30
2023-02-09T13:01:58.159Z,5.18
2023-02-09T13:02:58.197Z,5.02
2023-02-09T13:03:58.255Z,4.96
2023-02-09T13:04:58.244Z,4.77
2023-02-09T13:05:58.143Z,4.82
2023-02-09T13:06:58.102Z,5.04
2023-02-09T13:07:58.149Z,4.89
2023-02-09T13:08:58.109Z,4.75
2023-02-09T13:09:58.132Z,4.68
2023-02-09T13:10:58.102Z,4.70
2023-02-09T13:11:58.071Z,4.70
2023-02-09T13:12:58.075Z,4.90
2023-02-09T13:13:58.114Z,5.08
2023-02-09T13:14:58.124Z,5.18
2023-02-09T13:15:58.063Z,4.67
2023-02-09T13:16:58.103Z,4.44
2023-02-09T13:17:58.046Z,4.60
2023-02-09T13:18:58.033Z,4.77
2023-02-09T13:19:58.024Z,4.89
2023-02-09T13:20:58.031Z,4.77
2023-02-09T13:21:58.030Z,4.73
2023-02-09T13:22:58.008Z,4.71